Time;durP1;ratioP1;P1;durP2;ratioP2;P2;SDS_P1;SDS_P2;PMS_P1;PMS_P2;Temp;Humidity;BMP_temperature;BMP_pressure;BME280_temperature;BME280_humidity;BME280_pressure;Samples;Min_cycle;Max_cycle;Signal;HPM_P1;HPM_P2
2022/06/05 00:02:10;;;;;;;6.15;5.05;;;17.00;99.90;;;;;;5071583;28;20198;-69
2022/06/05 00:04:48;;;;;;;6.05;5.00;;;17.10;99.90;;;;;;5073728;28;20173;-69
2022/06/05 00:07:31;;;;;;;5.40;4.80;;;17.00;99.90;;;;;;5076393;28;20689;-69
2022/06/05 00:10:06;;;;;;;6.38;5.22;;;16.90;99.90;;;;;;5077221;28;20158;-69
2022/06/05 00:12:39;;;;;;;5.45;4.35;;;16.80;99.90;;;;;;5076688;28;20173;-69
2022/06/05 00:15:06;;;;;;;6.65;5.78;;;16.80;99.90;;;;;;5075142;28;20186;-69
2022/06/05 00:17:32;;;;;;;5.88;5.28;;;16.80;99.90;;;;;;5076169;28;20208;-69
2022/06/05 00:19:57;;;;;;;7.00;5.43;;;16.70;99.90;;;;;;5076866;28;20170;-69
2022/06/05 00:22:23;;;;;;;5.75;5.05;;;16.60;99.90;;;;;;5075993;28;20582;-69
2022/06/05 00:24:49;;;;;;;6.30;5.20;;;16.60;99.90;;;;;;5076447;28;20170;-69
2022/06/05 00:27:28;;;;;;;5.63;4.70;;;16.50;99.90;;;;;;5076408;28;20214;-69
2022/06/05 00:30:02;;;;;;;6.07;5.18;;;16.40;99.90;;;;;;5076126;28;20623;-69
2022/06/05 00:32:46;;;;;;;5.85;5.35;;;16.30;99.90;;;;;;5074802;28;20173;-69
2022/06/05 00:35:16;;;;;;;5.68;5.00;;;16.30;99.90;;;;;;5074659;28;20186;-69
2022/06/05 00:38:03;;;;;;;5.90;5.13;;;16.40;99.90;;;;;;5076928;28;20212;-69
2022/06/05 00:40:53;;;;;;;5.80;5.13;;;16.30;99.90;;;;;;5096080;28;20221;-69
2022/06/05 00:43:23;;;;;;;6.63;6.00;;;16.20;99.90;;;;;;5097370;28;20165;-69
2022/06/05 00:45:48;;;;;;;7.05;5.28;;;16.00;99.90;;;;;;5096992;28;20162;-69
2022/06/05 00:48:15;;;;;;;5.82;5.25;;;16.00;99.90;;;;;;5096898;28;20516;-69
2022/06/05 00:50:43;;;;;;;5.72;5.22;;;15.90;99.90;;;;;;5096771;28;20203;-69
2022/06/05 00:53:10;;;;;;;7.40;5.68;;;15.90;99.90;;;;;;5097009;28;20184;-69
2022/06/05 00:55:42;;;;;;;6.53;5.80;;;15.80;99.90;;;;;;5096648;28;20177;-69
2022/06/05 00:58:09;;;;;;;5.95;5.32;;;15.80;99.90;;;;;;5096722;28;20665;-69
2022/06/05 01:00:45;;;;;;;7.55;5.28;;;15.80;99.90;;;;;;5095253;28;20243;-69
2022/06/05 01:03:12;;;;;;;5.90;5.15;;;15.70;99.90;;;;;;5095734;28;20178;-69
2022/06/05 01:05:39;;;;;;;7.10;5.25;;;15.70;99.90;;;;;;5095507;28;20177;-69
2022/06/05 01:08:06;;;;;;;6.63;5.07;;;15.80;99.90;;;;;;5095159;28;20188;-68
2022/06/05 01:10:42;;;;;;;6.95;5.60;;;15.80;99.90;;;;;;5095274;28;20224;-69
2022/06/05 01:13:35;;;;;;;6.53;5.70;;;15.70;99.90;;;;;;5095968;28;20175;-69
2022/06/05 01:16:06;;;;;;;6.40;5.80;;;15.70;99.90;;;;;;5093262;28;20309;-69
2022/06/05 01:18:55;;;;;;;7.18;5.38;;;15.70;99.90;;;;;;5095515;28;20593;-69
2022/06/05 01:21:47;;;;;;;6.28;5.65;;;15.70;99.90;;;;;;5093912;28;20197;-69
2022/06/05 01:24:31;;;;;;;7.35;5.65;;;15.70;99.90;;;;;;5094838;28;20170;-69
2022/06/05 01:27:01;;;;;;;6.47;5.57;;;15.70;99.90;;;;;;5093808;28;20212;-69
2022/06/05 01:29:41;;;;;;;6.47;5.70;;;15.60;99.90;;;;;;5093745;28;20282;-69
2022/06/05 01:32:17;;;;;;;7.20;6.10;;;15.60;99.90;;;;;;5095277;28;20215;-67
2022/06/05 01:34:53;;;;;;;6.82;6.18;;;15.50;99.90;;;;;;5095636;28;20686;-67
2022/06/05 01:37:29;;;;;;;7.80;6.28;;;15.50;99.90;;;;;;5093619;28;20192;-68
2022/06/05 01:40:07;;;;;;;7.97;6.03;;;15.40;99.90;;;;;;5093876;28;20165;-68
2022/06/05 01:43:18;;;;;;;8.10;5.85;;;15.30;99.90;;;;;;5093730;28;20169;-67
2022/06/05 01:45:55;;;;;;;6.68;5.85;;;15.20;99.90;;;;;;5091851;28;20213;-67
2022/06/05 01:48:32;;;;;;;6.32;5.70;;;15.10;99.90;;;;;;5094903;28;20158;-67
2022/06/05 01:51:06;;;;;;;8.13;5.38;;;15.10;99.90;;;;;;5095059;28;20201;-67
2022/06/05 01:53:40;;;;;;;6.57;5.88;;;15.00;99.90;;;;;;5093369;28;20219;-67
2022/06/05 01:56:16;;;;;;;7.82;6.20;;;15.10;99.90;;;;;;5093638;28;20165;-67
2022/06/05 01:58:54;;;;;;;7.63;6.28;;;15.00;99.90;;;;;;5094577;28;20676;-67
2022/06/05 02:01:28;;;;;;;7.65;6.47;;;15.00;99.90;;;;;;5093772;28;20206;-67
2022/06/05 02:04:15;;;;;;;7.90;6.72;;;15.00;99.90;;;;;;5094798;28;20157;-67
2022/06/05 02:06:58;;;;;;;8.35;6.25;;;15.10;99.90;;;;;;5094581;28;20236;-68
2022/06/05 02:09:33;;;;;;;8.02;6.35;;;15.00;99.90;;;;;;5094406;28;20670;-68
2022/06/05 02:11:59;;;;;;;7.40;6.60;;;15.10;99.90;;;;;;5092980;28;20197;-67
2022/06/05 02:14:26;;;;;;;7.60;6.68;;;15.10;99.90;;;;;;5094279;28;20197;-67
2022/06/05 02:16:52;;;;;;;6.80;6.10;;;15.00;99.90;;;;;;5094201;28;20173;-67
2022/06/05 02:19:21;;;;;;;10.70;6.53;;;15.00;99.90;;;;;;5094172;28;20193;-67
2022/06/05 02:21:48;;;;;;;7.55;6.75;;;15.00;99.90;;;;;;5094278;28;20196;-67
2022/06/05 02:24:15;;;;;;;7.80;6.50;;;14.90;99.90;;;;;;5094085;28;20173;-67
2022/06/05 02:26:41;;;;;;;7.45;6.38;;;14.90;99.90;;;;;;5094291;28;20176;-68
2022/06/05 02:29:24;;;;;;;8.13;6.28;;;14.90;99.90;;;;;;5094773;28;20179;-67
2022/06/05 02:32:04;;;;;;;7.53;6.45;;;14.90;99.90;;;;;;5094372;28;20220;-68
2022/06/05 02:34:36;;;;;;;8.23;6.80;;;14.90;99.90;;;;;;5094224;28;20739;-67
2022/06/05 02:37:11;;;;;;;8.70;7.00;;;14.80;99.90;;;;;;5094772;28;20165;-67
2022/06/05 02:39:58;;;;;;;9.68;6.80;;;14.80;99.90;;;;;;5075428;28;20589;-67
2022/06/05 02:42:46;;;;;;;7.32;6.55;;;14.70;99.90;;;;;;5073802;28;20690;-67
2022/06/05 02:45:28;;;;;;;7.88;7.00;;;14.70;99.90;;;;;;5074508;28;20208;-68
2022/06/05 02:48:08;;;;;;;7.32;6.63;;;14.70;99.90;;;;;;5074266;28;20245;-67
2022/06/05 02:50:47;;;;;;;8.93;6.93;;;14.70;99.90;;;;;;5074015;28;20189;-67
2022/06/05 02:53:14;;;;;;;7.45;6.72;;;14.60;99.90;;;;;;5072464;28;20174;-68
2022/06/05 02:55:40;;;;;;;7.43;6.72;;;14.40;99.90;;;;;;5073868;28;20181;-67
2022/06/05 02:58:07;;;;;;;9.80;7.13;;;14.50;99.90;;;;;;5073674;28;20197;-68
2022/06/05 03:00:35;;;;;;;9.13;6.60;;;14.40;99.90;;;;;;5073790;28;20189;-68
2022/06/05 03:05:46;;;;;;;8.60;6.80;;;14.40;99.90;;;;;;5073846;28;20160;-67
2022/06/05 03:08:15;;;;;;;9.38;6.82;;;14.40;99.90;;;;;;5080433;28;20173;-68
2022/06/05 03:10:42;;;;;;;8.85;7.10;;;14.40;99.90;;;;;;5092502;28;20208;-67
2022/06/05 03:13:09;;;;;;;10.40;7.20;;;14.40;99.90;;;;;;5094132;28;20187;-67
2022/06/05 03:15:34;;;;;;;10.18;7.25;;;14.50;99.90;;;;;;5094020;28;20189;-67
2022/06/05 03:18:00;;;;;;;7.82;6.53;;;14.40;99.90;;;;;;5093718;28;20199;-67
2022/06/05 03:20:26;;;;;;;8.02;6.93;;;14.30;99.90;;;;;;5094092;28;20193;-67
2022/06/05 03:22:53;;;;;;;7.35;6.65;;;14.30;99.90;;;;;;5093945;28;20188;-68
2022/06/05 03:25:24;;;;;;;8.30;7.03;;;14.30;99.90;;;;;;5094339;28;20231;-68
2022/06/05 03:27:49;;;;;;;8.35;7.32;;;14.30;99.90;;;;;;5092453;28;20177;-67
2022/06/05 03:30:16;;;;;;;9.00;7.35;;;14.30;99.90;;;;;;5092354;28;20169;-68
2022/06/05 03:32:43;;;;;;;10.32;7.55;;;14.40;99.90;;;;;;5092376;28;20184;-68
2022/06/05 03:35:10;;;;;;;13.25;7.60;;;14.40;99.90;;;;;;5093908;28;20184;-67
2022/06/05 03:37:36;;;;;;;8.32;7.15;;;14.40;99.90;;;;;;5093338;28;20232;-68
2022/06/05 03:40:06;;;;;;;9.13;7.10;;;14.50;99.90;;;;;;5096915;28;20200;-68
2022/06/05 03:42:32;;;;;;;8.20;7.03;;;14.50;99.90;;;;;;5097756;28;20219;-67
2022/06/05 03:44:57;;;;;;;8.80;7.45;;;14.60;99.90;;;;;;5096373;28;20617;-67
2022/06/05 03:47:23;;;;;;;9.35;6.88;;;14.60;99.90;;;;;;5097914;28;20194;-67
2022/06/05 03:49:49;;;;;;;8.05;7.25;;;14.60;99.90;;;;;;5096538;28;20657;-67
2022/06/05 03:52:14;;;;;;;9.00;6.85;;;14.60;99.90;;;;;;5098167;28;20261;-68
2022/06/05 03:54:40;;;;;;;10.57;7.55;;;14.60;99.90;;;;;;5101449;28;20180;-67
2022/06/05 03:57:07;;;;;;;11.02;7.95;;;14.60;99.90;;;;;;5102014;28;20176;-67
2022/06/05 03:59:36;;;;;;;9.82;7.70;;;14.60;99.90;;;;;;5101704;28;20262;-68
2022/06/05 04:02:04;;;;;;;9.13;7.72;;;14.70;99.90;;;;;;5098742;28;20239;-67
2022/06/05 04:04:31;;;;;;;8.50;7.22;;;14.80;99.90;;;;;;5096710;28;20175;-67
2022/06/05 04:06:57;;;;;;;11.25;7.38;;;14.70;99.90;;;;;;5098140;28;20169;-67
2022/06/05 04:09:23;;;;;;;8.55;6.95;;;14.80;99.90;;;;;;5080248;28;20181;-67
2022/06/05 04:11:49;;;;;;;8.15;6.95;;;14.80;99.90;;;;;;5076751;28;20558;-67
2022/06/05 04:14:15;;;;;;;8.32;7.47;;;14.90;99.90;;;;;;5076682;28;20248;-67
2022/06/05 04:16:41;;;;;;;9.05;7.10;;;15.00;99.90;;;;;;5077269;28;20186;-67
2022/06/05 04:19:08;;;;;;;7.88;7.07;;;15.00;99.90;;;;;;5075637;28;20198;-69
2022/06/05 04:21:36;;;;;;;8.55;6.63;;;15.10;99.90;;;;;;5076543;28;20194;-68
2022/06/05 04:24:03;;;;;;;8.07;6.70;;;15.10;99.90;;;;;;5075158;28;20251;-68
2022/06/05 04:26:32;;;;;;;11.18;7.72;;;15.10;99.90;;;;;;5076634;28;20170;-68
2022/06/05 04:28:58;;;;;;;8.73;7.80;;;15.10;99.90;;;;;;5075561;28;20687;-68
2022/06/05 04:31:29;;;;;;;7.68;6.88;;;15.10;99.90;;;;;;5076632;28;20193;-67
2022/06/05 04:33:58;;;;;;;8.02;7.22;;;15.20;99.90;;;;;;5076345;28;20257;-67
2022/06/05 04:36:24;;;;;;;9.73;7.68;;;15.20;99.90;;;;;;5076390;28;20176;-68
2022/06/05 04:38:50;;;;;;;9.90;7.97;;;15.20;99.90;;;;;;5076240;28;20247;-68
2022/06/05 04:41:18;;;;;;;8.52;7.32;;;15.20;99.90;;;;;;5076345;28;20190;-67
2022/06/05 04:43:44;;;;;;;7.85;6.93;;;15.20;99.90;;;;;;5076277;28;20239;-68
2022/06/05 04:46:10;;;;;;;8.63;7.07;;;15.30;99.90;;;;;;5074868;28;20553;-68
2022/06/05 04:48:36;;;;;;;8.25;7.28;;;15.30;99.90;;;;;;5076402;28;20181;-68
2022/06/05 04:51:10;;;;;;;8.70;7.38;;;15.30;99.90;;;;;;5073612;28;20197;-67
2022/06/05 04:53:36;;;;;;;9.05;7.35;;;15.30;99.90;;;;;;5074458;28;20178;-68
2022/06/05 04:56:04;;;;;;;9.57;7.70;;;15.40;99.90;;;;;;5075875;28;20243;-67
2022/06/05 04:58:30;;;;;;;8.23;6.75;;;15.50;99.90;;;;;;5076053;28;20200;-68
2022/06/05 05:00:55;;;;;;;8.63;7.15;;;15.50;99.90;;;;;;5075893;28;20186;-67
2022/06/05 05:03:21;;;;;;;10.45;7.18;;;15.60;99.90;;;;;;5076151;28;20193;-68
2022/06/05 05:05:47;;;;;;;8.25;7.20;;;15.60;99.90;;;;;;5075837;28;20189;-67
2022/06/05 05:08:13;;;;;;;8.93;7.55;;;15.70;99.90;;;;;;5075838;28;20182;-68
2022/06/05 05:10:39;;;;;;;8.23;6.80;;;15.70;99.90;;;;;;5075519;28;20565;-68
2022/06/05 05:13:04;;;;;;;10.52;7.53;;;15.80;99.90;;;;;;5075800;28;20241;-68
2022/06/05 05:15:30;;;;;;;7.65;6.78;;;15.90;99.90;;;;;;5075722;28;20200;-67
2022/06/05 05:17:57;;;;;;;7.97;6.35;;;15.90;99.90;;;;;;5075634;28;20193;-67
2022/06/05 05:20:25;;;;;;;8.88;6.97;;;16.00;99.90;;;;;;5074111;28;20581;-67
2022/06/05 05:22:51;;;;;;;8.95;6.75;;;16.00;99.90;;;;;;5075486;28;20529;-68
2022/06/05 05:25:16;;;;;;;8.75;7.38;;;16.10;99.90;;;;;;5074998;28;20173;-68
2022/06/05 05:27:42;;;;;;;7.72;6.93;;;16.20;99.90;;;;;;5076063;28;20217;-70
2022/06/05 05:30:10;;;;;;;7.75;6.90;;;16.20;99.90;;;;;;5075819;28;20182;-70
2022/06/05 05:32:36;;;;;;;12.93;7.25;;;16.30;99.90;;;;;;5074900;28;20250;-70
2022/06/05 05:35:02;;;;;;;8.35;6.93;;;16.30;99.90;;;;;;5073983;28;20165;-70
2022/06/05 05:37:28;;;;;;;7.70;6.65;;;16.30;99.90;;;;;;5075104;28;20205;-70
2022/06/05 05:42:38;;;;;;;11.18;7.78;;;16.30;99.90;;;;;;5075604;28;20162;-70
2022/06/05 05:45:05;;;;;;;7.13;6.15;;;16.30;99.90;;;;;;5075848;28;20166;-70
2022/06/05 05:47:32;;;;;;;7.25;6.40;;;16.40;99.90;;;;;;5073640;28;20212;-70
2022/06/05 05:50:00;;;;;;;7.10;6.18;;;16.40;99.90;;;;;;5075903;28;20154;-70
2022/06/05 05:52:27;;;;;;;8.15;6.38;;;16.40;99.90;;;;;;5075346;28;20238;-70
2022/06/05 05:54:53;;;;;;;7.72;6.78;;;16.50;99.90;;;;;;5073751;28;20178;-70
2022/06/05 05:57:19;;;;;;;7.47;6.13;;;16.50;99.90;;;;;;5075286;28;20653;-70
2022/06/05 05:59:45;;;;;;;7.43;6.72;;;16.50;99.90;;;;;;5075312;28;20189;-70
2022/06/05 06:02:16;;;;;;;6.90;5.75;;;16.60;99.90;;;;;;5074714;28;20193;-70
2022/06/05 06:04:42;;;;;;;7.15;5.57;;;16.70;99.90;;;;;;5075530;28;20154;-70
2022/06/05 06:07:09;;;;;;;7.47;6.18;;;16.80;99.90;;;;;;5076139;28;20170;-70
2022/06/05 06:09:35;;;;;;;9.25;6.65;;;16.80;99.90;;;;;;5078181;28;20188;-70
2022/06/05 06:12:02;;;;;;;7.40;6.60;;;16.80;99.90;;;;;;5076290;28;20288;-70
2022/06/05 06:14:28;;;;;;;7.00;6.32;;;16.90;99.90;;;;;;5074827;28;20304;-70
2022/06/05 06:16:53;;;;;;;7.22;6.10;;;17.00;99.90;;;;;;5075032;28;20185;-70
2022/06/05 06:19:19;;;;;;;7.07;6.07;;;17.00;99.90;;;;;;5073878;28;20198;-70
2022/06/05 06:21:45;;;;;;;7.18;6.10;;;17.10;99.90;;;;;;5075680;28;20189;-70
2022/06/05 06:24:13;;;;;;;6.63;5.70;;;17.20;99.90;;;;;;5076049;28;20154;-70
2022/06/05 06:26:40;;;;;;;8.13;5.90;;;17.30;99.90;;;;;;5075845;28;20237;-70
2022/06/05 06:29:08;;;;;;;6.13;5.53;;;17.30;99.90;;;;;;5075549;28;20174;-70
2022/06/05 06:31:34;;;;;;;6.55;5.88;;;17.40;99.90;;;;;;5074489;28;20193;-70
2022/06/05 06:34:01;;;;;;;6.78;6.03;;;17.50;99.90;;;;;;5074836;28;20164;-70
2022/06/05 06:36:28;;;;;;;5.50;4.97;;;17.60;99.90;;;;;;5074679;28;20156;-71
2022/06/05 06:38:54;;;;;;;8.43;6.63;;;17.70;99.90;;;;;;5073989;28;20251;-68
2022/06/05 06:41:20;;;;;;;7.25;5.65;;;17.80;99.90;;;;;;5073496;28;20303;-67
2022/06/05 06:43:47;;;;;;;8.18;6.25;;;17.80;99.90;;;;;;5073852;28;20510;-68
2022/06/05 06:46:14;;;;;;;6.07;5.47;;;17.90;99.90;;;;;;5072290;28;20642;-68
2022/06/05 06:48:40;;;;;;;6.65;5.95;;;18.00;99.90;;;;;;5073846;28;20185;-68
2022/06/05 06:51:07;;;;;;;9.07;5.78;;;18.00;99.90;;;;;;5073972;28;20201;-68
2022/06/05 06:53:35;;;;;;;6.13;5.53;;;18.10;99.90;;;;;;5073795;28;20178;-71
2022/06/05 06:56:14;;;;;;;6.00;5.40;;;18.10;99.90;;;;;;5072537;28;20184;-71
2022/06/05 06:58:41;;;;;;;6.40;5.80;;;18.20;99.90;;;;;;5072540;28;20194;-71
2022/06/05 07:01:07;;;;;;;8.75;5.95;;;18.30;99.90;;;;;;5072390;28;20200;-69
2022/06/05 07:03:34;;;;;;;7.00;5.72;;;18.30;99.90;;;;;;5074708;28;20704;-71
2022/06/05 07:06:06;;;;;;;6.15;5.53;;;18.40;99.90;;;;;;5074557;28;20166;-69
2022/06/05 07:08:32;;;;;;;7.25;6.53;;;18.50;99.90;;;;;;5072968;28;20189;-69
2022/06/05 07:10:59;;;;;;;6.72;5.90;;;18.50;99.90;;;;;;5073531;28;20201;-69
2022/06/05 07:13:25;;;;;;;9.18;6.70;;;18.60;99.90;;;;;;5073517;28;20231;-69
2022/06/05 07:15:51;;;;;;;6.80;5.85;;;18.70;99.90;;;;;;5076459;28;20188;-69
2022/06/05 07:18:17;;;;;;;6.93;5.72;;;18.70;99.90;;;;;;5077460;28;20189;-68
2022/06/05 07:20:44;;;;;;;6.80;6.10;;;18.70;99.90;;;;;;5077949;28;20189;-70
2022/06/05 07:23:11;;;;;;;7.25;5.90;;;18.80;99.90;;;;;;5077519;28;20219;-71
2022/06/05 07:25:43;;;;;;;7.90;6.85;;;19.00;99.90;;;;;;5077447;28;20538;-69
2022/06/05 07:28:09;;;;;;;8.38;6.38;;;19.10;99.90;;;;;;5077019;28;20173;-69
2022/06/05 07:30:35;;;;;;;7.15;6.18;;;19.20;99.90;;;;;;5075909;28;20590;-69
2022/06/05 07:33:01;;;;;;;6.65;5.95;;;19.30;99.90;;;;;;5077277;28;20170;-70
2022/06/05 07:35:26;;;;;;;7.07;6.38;;;19.40;99.90;;;;;;5076746;28;20185;-69
2022/06/05 07:37:52;;;;;;;8.23;6.18;;;19.60;99.90;;;;;;5077032;28;20200;-68
2022/06/05 07:40:18;;;;;;;6.68;5.97;;;19.70;99.90;;;;;;5075873;28;20170;-70
2022/06/05 07:42:44;;;;;;;7.18;6.28;;;19.80;99.90;;;;;;5077553;28;20161;-71
2022/06/05 07:45:14;;;;;;;6.93;6.22;;;20.00;99.90;;;;;;5077406;28;20180;-68
2022/06/05 07:47:41;;;;;;;7.53;6.38;;;20.10;99.90;;;;;;5076920;28;20527;-65
2022/06/05 07:50:07;;;;;;;6.22;5.40;;;20.20;99.90;;;;;;5076869;28;20247;-68
2022/06/05 07:55:17;;;;;;;6.82;5.80;;;20.30;99.90;;;;;;5076359;28;20161;-68
2022/06/05 07:57:42;;;;;;;8.23;6.30;;;20.30;99.90;;;;;;5076773;28;20270;-66
2022/06/05 08:00:11;;;;;;;8.13;6.10;;;20.30;99.90;;;;;;5076963;28;20158;-66
2022/06/05 08:02:37;;;;;;;9.02;6.10;;;20.30;99.90;;;;;;5075100;28;20178;-66
2022/06/05 08:05:04;;;;;;;7.97;5.70;;;20.30;99.90;;;;;;5076955;28;20600;-66
2022/06/05 08:07:32;;;;;;;7.55;6.38;;;20.30;99.90;;;;;;5076227;28;20193;-66
2022/06/05 08:09:59;;;;;;;7.18;5.65;;;20.40;99.90;;;;;;5076625;28;20312;-77
2022/06/05 08:12:29;;;;;;;7.45;5.60;;;20.40;99.90;;;;;;5075375;28;20190;-66
2022/06/05 08:14:55;;;;;;;8.05;6.72;;;20.50;99.90;;;;;;5076141;28;20189;-66
2022/06/05 08:17:26;;;;;;;6.20;5.60;;;20.60;99.90;;;;;;5076113;28;20174;-66
2022/06/05 08:19:52;;;;;;;8.10;6.72;;;20.80;99.90;;;;;;5074875;28;20169;-65
2022/06/05 08:22:21;;;;;;;7.10;5.78;;;20.80;99.90;;;;;;5075932;28;20197;-66
2022/06/05 08:24:48;;;;;;;6.28;5.07;;;20.90;99.90;;;;;;5075593;28;20219;-66
2022/06/05 08:27:20;;;;;;;7.47;5.97;;;21.10;99.90;;;;;;5074595;28;20173;-65
2022/06/05 08:29:46;;;;;;;8.63;6.38;;;21.30;99.90;;;;;;5076190;28;20182;-65
2022/06/05 08:32:13;;;;;;;7.40;6.57;;;21.40;99.90;;;;;;5075937;28;20189;-65
2022/06/05 08:34:40;;;;;;;6.65;5.82;;;21.60;99.90;;;;;;5076278;28;20585;-65
2022/06/05 08:43:05;;;;;;;7.55;6.18;;;22.00;99.90;;;;;;5076297;28;20207;-65
2022/06/05 08:45:46;;;;;;;9.23;7.10;;;22.20;99.90;;;;;;5075555;28;20174;-65
2022/06/05 08:48:23;;;;;;;8.43;6.32;;;22.40;99.90;;;;;;5075607;28;20166;-65
2022/06/05 08:50:53;;;;;;;7.15;6.18;;;22.60;99.90;;;;;;5074161;28;20205;-65
2022/06/05 08:53:56;;;;;;;6.18;5.57;;;22.70;99.90;;;;;;5076195;28;20180;-65
2022/06/05 08:56:37;;;;;;;6.40;5.80;;;22.90;99.90;;;;;;5075571;28;20162;-65
2022/06/05 08:59:31;;;;;;;7.43;6.18;;;23.00;99.90;;;;;;5075873;28;20186;-65
2022/06/05 09:02:25;;;;;;;6.78;5.65;;;23.20;99.90;;;;;;5075376;28;20193;-65
2022/06/05 09:05:08;;;;;;;7.90;5.22;;;23.30;99.90;;;;;;5072835;28;20178;-65
2022/06/05 09:07:43;;;;;;;7.13;5.47;;;23.30;99.90;;;;;;5077201;28;20150;-65
2022/06/05 09:10:32;;;;;;;5.72;5.13;;;23.20;99.90;;;;;;5095463;28;20164;-65
2022/06/05 09:13:05;;;;;;;7.60;6.00;;;23.30;99.90;;;;;;5095487;28;20706;-65
2022/06/05 09:15:36;;;;;;;5.80;5.20;;;23.30;99.90;;;;;;5095369;28;20645;-65
2022/06/05 09:18:12;;;;;;;9.65;6.30;;;23.40;99.90;;;;;;5095478;28;20189;-65
2022/06/05 09:20:51;;;;;;;7.13;6.40;;;23.30;99.90;;;;;;5095577;28;20193;-66
2022/06/05 09:24:05;;;;;;;8.38;6.18;;;23.30;99.90;;;;;;5094015;28;20626;-65
2022/06/05 09:26:50;;;;;;;5.85;5.25;;;23.20;99.90;;;;;;5093987;28;20177;-64
2022/06/05 09:29:30;;;;;;;6.68;6.07;;;23.20;99.90;;;;;;5095248;28;20169;-64
2022/06/05 09:32:17;;;;;;;8.50;6.18;;;23.20;99.90;;;;;;5095152;28;20192;-64
2022/06/05 09:34:58;;;;;;;6.68;6.05;;;23.10;99.90;;;;;;5094964;28;20191;-67
2022/06/05 09:37:48;;;;;;;8.35;6.50;;;23.00;99.90;;;;;;5093173;28;20692;-67
2022/06/05 09:40:46;;;;;;;8.48;6.45;;;22.90;99.90;;;;;;5094489;28;20172;-67
2022/06/05 09:43:33;;;;;;;8.10;6.10;;;22.70;99.90;;;;;;5094532;28;20209;-69
2022/06/05 09:46:08;;;;;;;7.28;6.32;;;22.50;99.90;;;;;;5095001;28;20214;-64
2022/06/05 09:48:51;;;;;;;7.63;6.65;;;22.40;99.90;;;;;;5095344;28;20153;-64
2022/06/05 09:51:19;;;;;;;7.93;6.80;;;22.30;99.90;;;;;;5094862;28;20203;-65
2022/06/05 09:54:04;;;;;;;9.38;7.88;;;22.40;99.90;;;;;;5094686;28;20181;-64
2022/06/05 09:59:40;;;;;;;6.15;5.20;;;22.20;99.90;;;;;;5093470;28;20686;-64
2022/06/05 10:02:08;;;;;;;7.32;4.90;;;22.20;99.90;;;;;;5093523;28;20196;-64
2022/06/05 10:04:36;;;;;;;6.78;5.93;;;22.20;99.90;;;;;;5094652;28;20165;-64
2022/06/05 10:07:13;;;;;;;11.13;7.28;;;22.10;99.90;;;;;;5094730;28;20294;-64
2022/06/05 10:09:45;;;;;;;6.53;5.78;;;22.00;99.90;;;;;;5094625;28;20645;-64
2022/06/05 10:12:24;;;;;;;6.00;5.40;;;21.90;99.90;;;;;;5094777;28;20193;-64
2022/06/05 10:15:16;;;;;;;8.38;6.28;;;21.70;99.90;;;;;;5095710;28;20191;-65
2022/06/05 10:17:48;;;;;;;6.95;6.25;;;21.50;99.90;;;;;;5096047;28;20162;-65
2022/06/05 10:20:14;;;;;;;6.75;6.15;;;21.20;99.90;;;;;;5095240;28;20150;-65
2022/06/05 10:22:40;;;;;;;6.88;5.75;;;21.00;99.90;;;;;;5095228;28;20248;-67
2022/06/05 10:25:14;;;;;;;9.77;6.65;;;20.80;99.90;;;;;;5094671;28;20173;-64
2022/06/05 10:28:04;;;;;;;7.80;7.00;;;20.50;99.90;;;;;;5094910;28;20162;-64
2022/06/05 10:30:35;;;;;;;7.00;6.30;;;20.10;99.90;;;;;;5094268;28;20193;-64
2022/06/05 10:33:21;;;;;;;7.15;6.20;;;19.90;99.90;;;;;;5094150;28;20233;-64
2022/06/05 10:35:55;;;;;;;8.20;7.13;;;19.70;99.90;;;;;;5094525;28;20157;-64
2022/06/05 10:38:31;;;;;;;8.55;7.03;;;19.50;99.90;;;;;;5092727;28;20219;-64
2022/06/05 10:41:21;;;;;;;7.97;6.75;;;19.40;99.90;;;;;;5092497;28;20188;-64
2022/06/05 10:44:11;;;;;;;8.35;7.55;;;19.50;99.90;;;;;;5089799;28;20552;-64
2022/06/05 10:46:45;;;;;;;8.00;7.20;;;19.40;99.90;;;;;;5094267;28;20152;-63
2022/06/05 10:49:24;;;;;;;10.50;8.05;;;19.40;99.90;;;;;;5093129;28;20157;-64
2022/06/05 10:52:28;;;;;;;8.57;7.68;;;19.30;99.90;;;;;;5094105;28;20200;-64
2022/06/05 10:55:13;;;;;;;9.55;8.13;;;19.20;99.90;;;;;;5092615;28;20653;-64
2022/06/05 10:57:46;;;;;;;8.85;7.65;;;19.10;99.90;;;;;;5092717;28;20516;-64
2022/06/05 11:00:34;;;;;;;11.25;8.75;;;18.90;99.90;;;;;;5093658;28;20157;-64
2022/06/05 11:03:15;;;;;;;7.95;7.25;;;18.80;99.90;;;;;;5093930;28;20240;-64
2022/06/05 11:06:25;;;;;;;9.00;8.10;;;18.70;99.90;;;;;;5093981;28;20213;-64
2022/06/05 11:09:12;;;;;;;10.15;8.75;;;18.70;99.90;;;;;;5063086;28;20188;-64
2022/06/05 11:14:42;;;;;;;9.38;8.00;;;18.60;99.90;;;;;;5093495;28;20245;-64
2022/06/05 11:17:41;;;;;;;11.23;8.50;;;18.60;99.90;;;;;;5093481;28;20161;-64
2022/06/05 11:20:15;;;;;;;9.38;8.48;;;18.60;99.90;;;;;;5093619;28;20523;-64
2022/06/05 11:23:18;;;;;;;9.60;8.60;;;18.70;99.90;;;;;;5093667;28;20620;-64
2022/06/05 11:26:17;;;;;;;9.07;8.02;;;18.70;99.90;;;;;;5080829;28;20214;-64
2022/06/05 11:28:48;;;;;;;9.80;7.90;;;18.70;99.90;;;;;;5093405;28;20169;-64
2022/06/05 11:31:25;;;;;;;9.95;8.77;;;18.80;99.90;;;;;;5093734;28;20642;-64
2022/06/05 11:34:28;;;;;;;10.05;9.05;;;18.80;99.90;;;;;;5093415;28;20192;-64
2022/06/05 11:37:10;;;;;;;10.32;9.25;;;18.90;99.90;;;;;;5091988;28;20299;-64
2022/06/05 11:39:55;;;;;;;10.23;9.15;;;18.90;99.90;;;;;;5093160;28;20200;-64
2022/06/05 11:42:29;;;;;;;9.15;8.25;;;18.90;99.90;;;;;;5093228;28;20689;-64
2022/06/05 11:45:25;;;;;;;10.13;9.13;;;18.90;99.90;;;;;;5093287;28;20157;-64
2022/06/05 11:48:16;;;;;;;10.27;8.82;;;18.90;99.90;;;;;;5093853;28;20547;-64
2022/06/05 11:51:00;;;;;;;9.02;8.13;;;18.90;99.90;;;;;;5093293;28;20216;-64
2022/06/05 11:53:47;;;;;;;10.15;8.35;;;18.90;99.90;;;;;;5093737;28;20248;-65
2022/06/05 11:56:45;;;;;;;9.70;8.73;;;18.90;99.90;;;;;;5093363;28;20202;-64
2022/06/05 11:59:29;;;;;;;9.75;8.73;;;18.90;99.90;;;;;;5081735;28;20291;-65
2022/06/05 12:02:30;;;;;;;10.32;8.00;;;19.00;99.90;;;;;;5097203;28;20224;-65
2022/06/05 12:05:16;;;;;;;11.15;8.57;;;19.00;99.90;;;;;;5093424;28;20207;-66
2022/06/05 12:07:46;;;;;;;9.90;8.70;;;19.00;99.90;;;;;;5098217;28;20605;-72
2022/06/05 12:10:33;;;;;;;10.68;8.90;;;19.00;99.90;;;;;;5098021;28;20177;-66
2022/06/05 12:13:23;;;;;;;9.43;8.52;;;19.00;99.90;;;;;;5097003;28;20180;-65
2022/06/05 12:16:02;;;;;;;9.75;8.75;;;19.20;99.90;;;;;;5096760;28;20176;-65
2022/06/05 12:18:43;;;;;;;11.65;8.57;;;19.20;99.90;;;;;;5096908;28;20185;-65
2022/06/05 12:21:15;;;;;;;10.50;9.40;;;19.30;99.90;;;;;;5096719;28;20681;-66
2022/06/05 12:23:51;;;;;;;12.73;8.90;;;19.30;99.90;;;;;;5096535;28;20162;-65
2022/06/05 12:26:20;;;;;;;11.15;8.93;;;19.30;99.90;;;;;;5096157;28;20159;-64
2022/06/05 12:28:52;;;;;;;9.27;8.38;;;19.30;99.90;;;;;;5096680;28;20168;-66
2022/06/05 12:31:23;;;;;;;9.23;8.32;;;19.30;99.90;;;;;;5096741;28;20224;-66
2022/06/05 12:34:04;;;;;;;12.60;7.90;;;19.30;99.90;;;;;;5096728;28;20158;-64
2022/06/05 12:36:40;;;;;;;10.70;9.10;;;19.30;99.90;;;;;;5096605;28;20169;-64
2022/06/05 12:39:18;;;;;;;9.75;8.25;;;19.30;99.90;;;;;;5095003;28;20616;-65
2022/06/05 12:42:09;;;;;;;9.48;8.45;;;19.30;99.90;;;;;;5096296;28;20192;-65
2022/06/05 12:44:42;;;;;;;9.68;8.68;;;19.30;99.90;;;;;;5096454;28;20157;-65
2022/06/05 12:47:19;;;;;;;8.48;7.57;;;19.30;99.90;;;;;;5095408;28;20169;-65
2022/06/05 12:49:54;;;;;;;8.65;7.75;;;19.30;99.90;;;;;;5097953;28;20161;-66
2022/06/05 12:52:34;;;;;;;10.07;8.57;;;19.40;99.90;;;;;;5097665;28;20757;-66
2022/06/05 12:55:12;;;;;;;8.85;7.82;;;19.40;99.90;;;;;;5096282;28;20166;-65
2022/06/05 12:57:45;;;;;;;9.07;8.15;;;19.40;99.90;;;;;;5095866;28;20161;-66
2022/06/05 13:00:22;;;;;;;9.38;8.48;;;19.30;99.90;;;;;;5094660;28;20184;-67
2022/06/05 13:03:18;;;;;;;10.23;8.65;;;19.40;99.90;;;;;;5096102;28;20206;-66
2022/06/05 13:06:11;;;;;;;10.85;9.50;;;19.40;99.90;;;;;;5094391;28;20526;-66
2022/06/05 13:08:56;;;;;;;9.90;8.35;;;19.50;99.90;;;;;;5092623;28;20200;-66
2022/06/05 13:11:46;;;;;;;9.80;8.80;;;19.50;99.90;;;;;;5094210;28;20337;-66
2022/06/05 13:14:21;;;;;;;9.73;8.73;;;19.70;99.90;;;;;;5094429;28;20280;-68
2022/06/05 13:16:56;;;;;;;11.15;9.60;;;19.90;99.90;;;;;;5094306;28;20271;-67
2022/06/05 13:19:35;;;;;;;12.65;11.07;;;20.00;99.90;;;;;;5095785;28;20188;-66
2022/06/05 13:22:03;;;;;;;11.63;10.43;;;20.00;99.90;;;;;;5095723;28;20200;-68
2022/06/05 13:24:41;;;;;;;11.80;10.60;;;20.00;99.90;;;;;;5095318;28;20220;-68
2022/06/05 13:27:25;;;;;;;11.13;9.95;;;20.00;99.90;;;;;;5093995;28;20203;-67
2022/06/05 13:30:09;;;;;;;10.98;9.77;;;20.00;99.90;;;;;;5095620;28;20164;-68
2022/06/05 13:32:47;;;;;;;12.32;10.93;;;20.10;99.90;;;;;;5095294;28;20166;-67
2022/06/05 13:35:35;;;;;;;12.07;10.88;;;20.20;99.90;;;;;;5095503;28;20158;-67
2022/06/05 13:38:12;;;;;;;10.82;9.73;;;20.30;99.90;;;;;;5094984;28;20196;-67
2022/06/05 13:40:47;;;;;;;10.73;9.57;;;20.40;99.90;;;;;;5094797;28;20193;-66